P Hill, Oregon
Current Conditions -  °F | °C
As of 4:54 AM on Friday 31 Oct 2014 (Local Time) from KEUG Reporting Station
Light Rain Light Rain  
Wind Chill: 53°   Ceiling: 5000
Heat Index: 53°   Visibility: 10mi
Dew Point: 50°   Wind: 16mph
Humidity: 89%   Direction: 250°WSW
Pressure: 29.75"   Gusts: NA
Location:  43.9516°N, 122.922°W
Report Text: KEUG 311154Z AUTO 25014KT 10SM -RA FEW027 BKN050 OVC075 12/10 A2975 RMK AO2 SLP074 P0013 60043 70083 T01170100 10156 20117 53013
Loading
Personal Weather Stations






























Interactive Weather Map
Tropical Storm Tracking
New forecast layout! Learn more

10-Day Weather Forecast

Advertisements
Track Severe Weather on mobile